Time;durP1;ratioP1;P1;durP2;ratioP2;P2;SDS_P1;SDS_P2;PMS_P1;PMS_P2;Temp;Humidity;BMP_temperature;BMP_pressure;BME280_temperature;BME280_humidity;BME280_pressure;Samples;Min_cycle;Max_cycle;Signal;HPM_P1;HPM_P2
2021/08/06 00:01:18;;;;;;;2.58;0.35;;;23.80;60.10;;;;;;5072151;28;20082;-63
2021/08/06 00:03:44;;;;;;;0.60;0.50;;;23.70;60.00;;;;;;5072778;28;20382;-63
2021/08/06 00:06:10;;;;;;;0.40;0.40;;;23.80;60.10;;;;;;5071604;28;20028;-62
2021/08/06 00:08:35;;;;;;;0.50;0.50;;;23.70;60.00;;;;;;5071414;28;20111;-62
2021/08/06 00:11:02;;;;;;;0.95;0.68;;;23.70;60.00;;;;;;5051819;28;20021;-62
2021/08/06 00:13:28;;;;;;;0.65;0.50;;;23.70;60.00;;;;;;5052138;28;20094;-62
2021/08/06 00:15:54;;;;;;;0.40;0.40;;;23.70;60.00;;;;;;5051651;28;20033;-62
2021/08/06 00:18:20;;;;;;;0.45;0.40;;;23.70;59.90;;;;;;5051887;28;20033;-62
2021/08/06 00:20:49;;;;;;;0.93;0.40;;;23.70;59.90;;;;;;5051467;28;20163;-62
2021/08/06 00:23:15;;;;;;;0.50;0.40;;;23.70;59.90;;;;;;5051432;28;20052;-62
2021/08/06 00:25:41;;;;;;;0.80;0.40;;;23.70;59.80;;;;;;5051932;28;20462;-62
2021/08/06 00:28:07;;;;;;;0.80;0.57;;;23.60;59.80;;;;;;5068455;28;20031;-62
2021/08/06 00:30:32;;;;;;;0.68;0.50;;;23.70;59.80;;;;;;5071949;28;20037;-63
2021/08/06 00:32:58;;;;;;;0.82;0.43;;;23.70;59.80;;;;;;5071253;28;20028;-62
2021/08/06 00:35:24;;;;;;;0.50;0.40;;;23.60;59.70;;;;;;5072065;28;20028;-62
2021/08/06 00:37:50;;;;;;;0.50;0.50;;;23.60;59.60;;;;;;5070446;28;20021;-62
2021/08/06 00:40:16;;;;;;;0.43;0.40;;;23.70;59.70;;;;;;5071038;28;20078;-62
2021/08/06 00:42:41;;;;;;;1.02;0.40;;;23.70;59.70;;;;;;5071618;28;20099;-62
2021/08/06 00:45:08;;;;;;;1.38;0.40;;;23.70;59.70;;;;;;5071110;28;20150;-62
2021/08/06 00:47:34;;;;;;;0.50;0.50;;;23.70;59.60;;;;;;5071432;28;20028;-62
2021/08/06 00:50:01;;;;;;;0.50;0.40;;;23.70;59.60;;;;;;5071037;28;20036;-62
2021/08/06 00:52:27;;;;;;;0.90;0.40;;;23.70;59.50;;;;;;5071885;28;20032;-62
2021/08/06 00:54:53;;;;;;;0.70;0.57;;;23.70;59.50;;;;;;5071721;28;20098;-61
2021/08/06 00:57:18;;;;;;;1.05;0.45;;;23.70;59.40;;;;;;5070939;28;20029;-62
2021/08/06 00:59:44;;;;;;;0.50;0.40;;;23.70;59.40;;;;;;5071471;28;20044;-62
2021/08/06 01:02:38;;;;;;;0.80;0.60;;;23.70;59.40;;;;;;5070660;28;20024;-62
2021/08/06 01:05:11;;;;;;;0.82;0.50;;;23.70;59.60;;;;;;5071051;28;20060;-62
2021/08/06 01:07:55;;;;;;;1.38;0.50;;;23.70;59.40;;;;;;5071395;28;20062;-62
2021/08/06 01:10:28;;;;;;;0.50;0.40;;;23.70;59.30;;;;;;5055576;28;20036;-62
2021/08/06 01:12:59;;;;;;;0.40;0.40;;;23.70;59.30;;;;;;5051389;28;20052;-62
2021/08/06 01:15:26;;;;;;;0.80;0.47;;;23.60;59.20;;;;;;5051886;28;20033;-63
2021/08/06 01:17:53;;;;;;;0.57;0.50;;;23.60;59.20;;;;;;5051362;28;20488;-61
2021/08/06 01:20:23;;;;;;;0.65;0.50;;;23.70;59.20;;;;;;5051112;28;20117;-62
2021/08/06 01:23:03;;;;;;;0.50;0.50;;;23.70;59.20;;;;;;5051664;28;20386;-62
2021/08/06 01:25:35;;;;;;;1.98;0.40;;;23.70;59.20;;;;;;5051564;28;20025;-62
2021/08/06 01:28:01;;;;;;;;;;;23.60;59.00;;;;;;5050823;28;20043;-61
2021/08/06 01:30:26;;;;;;;1.45;0.30;;;23.70;59.20;;;;;;5051285;28;19920;-61
2021/08/06 01:32:56;;;;;;;0.77;0.50;;;23.60;59.00;;;;;;5058524;28;20021;-61
2021/08/06 01:35:22;;;;;;;0.68;0.55;;;23.70;59.10;;;;;;5074776;28;20554;-62
2021/08/06 01:37:48;;;;;;;0.43;0.35;;;23.60;59.00;;;;;;5075011;28;20028;-61
2021/08/06 01:40:15;;;;;;;0.88;0.50;;;23.60;59.30;;;;;;5073961;28;20482;-62
2021/08/06 01:42:56;;;;;;;1.58;0.40;;;23.60;59.00;;;;;;5075082;28;20025;-62
2021/08/06 01:45:33;;;;;;;2.00;0.55;;;23.60;58.90;;;;;;5073240;28;20106;-62
2021/08/06 01:47:59;;;;;;;0.73;0.50;;;23.60;58.90;;;;;;5073269;28;20055;-62
2021/08/06 01:50:31;;;;;;;0.40;0.40;;;23.60;58.90;;;;;;5074734;28;20068;-62
2021/08/06 01:52:59;;;;;;;;;;;23.60;58.80;;;;;;5075341;28;20028;-63
2021/08/06 01:55:30;;;;;;;0.65;0.40;;;23.60;58.80;;;;;;5074224;28;19904;-63
2021/08/06 01:57:58;;;;;;;1.80;0.55;;;23.60;58.80;;;;;;5074877;28;20108;-62
2021/08/06 02:00:26;;;;;;;0.90;0.65;;;23.60;58.80;;;;;;5072455;28;20044;-64
2021/08/06 02:02:52;;;;;;;0.60;0.47;;;23.60;58.80;;;;;;5074820;28;20064;-64
2021/08/06 02:05:21;;;;;;;1.00;0.50;;;23.60;58.80;;;;;;5073463;28;20107;-63
2021/08/06 02:07:48;;;;;;;0.40;0.40;;;23.60;58.60;;;;;;5074092;28;20017;-66
2021/08/06 02:10:14;;;;;;;1.58;0.50;;;23.60;58.60;;;;;;5059664;28;20025;-66
2021/08/06 02:12:41;;;;;;;0.90;0.43;;;23.60;58.60;;;;;;5054318;28;20021;-63
2021/08/06 02:15:08;;;;;;;0.40;0.35;;;23.60;58.60;;;;;;5053738;28;20386;-63
2021/08/06 02:17:35;;;;;;;0.30;0.30;;;23.60;58.50;;;;;;5054774;28;20028;-64
2021/08/06 02:20:04;;;;;;;0.60;0.50;;;23.60;58.60;;;;;;5053700;28;20033;-63
2021/08/06 02:22:32;;;;;;;0.75;0.50;;;23.60;58.50;;;;;;5054020;28;20390;-62
2021/08/06 02:24:58;;;;;;;0.98;0.50;;;23.60;58.50;;;;;;5072497;28;20043;-62
2021/08/06 02:27:25;;;;;;;0.50;0.40;;;23.60;58.40;;;;;;5073113;28;20025;-63
2021/08/06 02:29:52;;;;;;;0.68;0.50;;;23.60;58.40;;;;;;5074263;28;20048;-62
2021/08/06 02:32:18;;;;;;;1.15;0.60;;;23.60;58.40;;;;;;5073342;28;20045;-63
2021/08/06 02:34:44;;;;;;;1.30;0.60;;;23.60;58.30;;;;;;5073531;28;20091;-63
2021/08/06 02:37:10;;;;;;;0.57;0.47;;;23.60;58.30;;;;;;5073077;28;20059;-64
2021/08/06 02:39:35;;;;;;;1.20;0.60;;;23.60;58.30;;;;;;5073861;28;20056;-64
2021/08/06 02:42:04;;;;;;;0.50;0.50;;;23.60;58.20;;;;;;5073114;28;20028;-63
2021/08/06 02:44:30;;;;;;;0.90;0.40;;;23.60;58.20;;;;;;5073881;28;20025;-63
2021/08/06 02:46:55;;;;;;;1.85;0.60;;;23.60;58.20;;;;;;5074096;28;20020;-63
2021/08/06 02:49:21;;;;;;;0.68;0.57;;;23.60;58.10;;;;;;5073056;28;20035;-63
2021/08/06 02:51:47;;;;;;;1.25;0.60;;;23.60;58.10;;;;;;5074038;28;20069;-62
2021/08/06 02:54:12;;;;;;;2.15;0.60;;;23.60;58.10;;;;;;5072778;28;20024;-62
2021/08/06 02:56:38;;;;;;;0.90;0.52;;;23.60;58.10;;;;;;5073276;28;20056;-63
2021/08/06 02:59:04;;;;;;;0.50;0.50;;;23.60;58.70;;;;;;5072388;28;20055;-64
2021/08/06 03:01:29;;;;;;;0.98;0.60;;;23.60;58.00;;;;;;5073846;28;20071;-65
2021/08/06 03:03:55;;;;;;;0.60;0.60;;;23.60;58.00;;;;;;5073654;28;20025;-64
2021/08/06 03:06:20;;;;;;;0.70;0.60;;;23.60;58.00;;;;;;5072528;28;20020;-64
2021/08/06 03:08:46;;;;;;;0.80;0.40;;;23.60;58.00;;;;;;5070883;28;20028;-61
2021/08/06 03:11:12;;;;;;;1.45;0.57;;;23.60;57.90;;;;;;5051522;28;20021;-63
2021/08/06 03:13:37;;;;;;;0.50;0.50;;;23.60;57.90;;;;;;5053131;28;20059;-60
2021/08/06 03:16:03;;;;;;;0.40;0.40;;;23.60;57.80;;;;;;5052310;28;20025;-60
2021/08/06 03:18:29;;;;;;;0.50;0.47;;;23.60;57.80;;;;;;5056578;28;20465;-61
2021/08/06 03:20:55;;;;;;;0.52;0.52;;;23.60;57.80;;;;;;5073197;28;20032;-61
2021/08/06 03:23:21;;;;;;;0.68;0.60;;;23.60;57.70;;;;;;5072422;28;20496;-61
2021/08/06 03:25:47;;;;;;;1.10;0.50;;;23.60;57.70;;;;;;5073450;28;20025;-61
2021/08/06 03:28:12;;;;;;;0.88;0.60;;;23.60;57.70;;;;;;5072031;28;20091;-61
2021/08/06 03:30:38;;;;;;;0.68;0.50;;;23.60;57.70;;;;;;5073231;28;20428;-61
2021/08/06 03:33:04;;;;;;;1.10;0.68;;;23.60;57.60;;;;;;5072233;28;20056;-61
2021/08/06 03:35:29;;;;;;;0.60;0.60;;;23.60;57.60;;;;;;5073020;28;20351;-61
2021/08/06 03:37:55;;;;;;;0.52;0.50;;;23.60;57.60;;;;;;5072636;28;20020;-61
2021/08/06 03:40:21;;;;;;;1.02;0.70;;;23.60;57.60;;;;;;5072013;28;20166;-61
2021/08/06 03:42:46;;;;;;;1.00;0.57;;;23.60;57.50;;;;;;5072484;28;20099;-61
2021/08/06 03:45:12;;;;;;;0.60;0.60;;;23.60;57.60;;;;;;5071750;28;20025;-61
2021/08/06 03:47:38;;;;;;;0.50;0.50;;;23.60;57.50;;;;;;5072746;28;20079;-61
2021/08/06 03:50:06;;;;;;;0.82;0.50;;;23.60;57.50;;;;;;5071940;28;20032;-61
2021/08/06 03:52:32;;;;;;;2.25;0.90;;;23.60;57.50;;;;;;5072498;28;20096;-62
2021/08/06 03:54:57;;;;;;;0.60;0.55;;;23.60;57.50;;;;;;5072173;28;20111;-61
2021/08/06 03:57:23;;;;;;;0.95;0.50;;;23.60;57.50;;;;;;5071804;28;20091;-61
2021/08/06 03:59:48;;;;;;;0.77;0.60;;;23.60;57.50;;;;;;5071983;28;20127;-61
2021/08/06 04:02:14;;;;;;;0.70;0.70;;;23.60;57.50;;;;;;5071503;28;20543;-62
2021/08/06 04:04:40;;;;;;;0.85;0.60;;;23.60;57.50;;;;;;5072170;28;20077;-61
2021/08/06 04:07:05;;;;;;;0.57;0.40;;;23.60;57.40;;;;;;5069958;28;20020;-61
2021/08/06 04:09:31;;;;;;;0.98;0.68;;;23.60;57.40;;;;;;5063766;28;20029;-64
2021/08/06 04:11:56;;;;;;;1.50;0.70;;;23.60;57.40;;;;;;5052422;28;20036;-60
2021/08/06 04:14:22;;;;;;;0.80;0.60;;;23.60;57.50;;;;;;5051134;28;20531;-61
2021/08/06 04:16:48;;;;;;;1.65;0.60;;;23.60;57.40;;;;;;5052666;28;20115;-61
2021/08/06 04:19:14;;;;;;;1.30;0.70;;;23.60;57.40;;;;;;5050088;28;20118;-60
2021/08/06 04:21:40;;;;;;;1.38;1.13;;;23.60;57.50;;;;;;5050581;28;20459;-61
2021/08/06 04:24:06;;;;;;;0.80;0.50;;;23.60;57.40;;;;;;5049968;28;20021;-61
2021/08/06 04:26:32;;;;;;;0.70;0.45;;;23.60;57.30;;;;;;5051014;28;20025;-60
2021/08/06 04:28:59;;;;;;;1.50;0.70;;;23.70;57.50;;;;;;5050516;28;20041;-61
2021/08/06 04:31:25;;;;;;;4.13;0.70;;;23.60;57.40;;;;;;5049929;28;20033;-61
2021/08/06 04:33:51;;;;;;;0.80;0.52;;;23.70;57.40;;;;;;5050636;28;20051;-60
2021/08/06 04:36:16;;;;;;;2.90;0.90;;;23.70;58.10;;;;;;5050167;28;20020;-60
2021/08/06 04:38:42;;;;;;;3.13;1.15;;;23.70;57.50;;;;;;5054574;28;20072;-61
2021/08/06 04:41:09;;;;;;;1.95;0.60;;;23.70;57.40;;;;;;5049675;28;20044;-60
2021/08/06 04:43:35;;;;;;;2.30;0.85;;;23.70;57.50;;;;;;5050701;28;20103;-61
2021/08/06 04:46:02;;;;;;;1.15;0.80;;;23.70;57.50;;;;;;5050231;28;20104;-63
2021/08/06 04:48:27;;;;;;;1.23;0.70;;;23.70;57.50;;;;;;5050451;28;20082;-62
2021/08/06 04:50:53;;;;;;;1.83;0.75;;;23.70;57.70;;;;;;5050627;28;20417;-61
2021/08/06 04:53:19;;;;;;;2.30;0.70;;;23.70;57.70;;;;;;5049580;28;20459;-61
2021/08/06 04:55:45;;;;;;;0.57;0.40;;;23.70;57.70;;;;;;5050580;28;20052;-61
2021/08/06 04:58:10;;;;;;;2.38;0.70;;;23.70;57.70;;;;;;5049607;28;20021;-60
2021/08/06 05:00:36;;;;;;;1.63;0.60;;;23.70;57.80;;;;;;5050201;28;20059;-60
2021/08/06 05:03:02;;;;;;;1.40;0.80;;;23.70;57.80;;;;;;5049654;28;20033;-61
2021/08/06 05:05:27;;;;;;;0.93;0.60;;;23.70;57.80;;;;;;5050105;28;20033;-62
2021/08/06 05:07:54;;;;;;;1.77;0.60;;;23.70;57.90;;;;;;5055920;28;20517;-60
2021/08/06 05:10:22;;;;;;;1.40;0.80;;;23.70;57.90;;;;;;5053524;28;20432;-60
2021/08/06 05:12:48;;;;;;;2.00;0.93;;;23.70;58.00;;;;;;5057423;28;20040;-61
2021/08/06 05:15:13;;;;;;;1.30;0.80;;;23.70;58.10;;;;;;5054131;28;20025;-61
2021/08/06 05:17:39;;;;;;;1.25;0.50;;;23.70;58.10;;;;;;5052189;28;20450;-60
2021/08/06 05:20:06;;;;;;;1.35;0.75;;;23.70;58.20;;;;;;5053611;28;20056;-61
2021/08/06 05:22:31;;;;;;;2.08;0.60;;;23.60;58.20;;;;;;5054257;28;20063;-61
2021/08/06 05:24:57;;;;;;;5.03;0.77;;;23.70;58.30;;;;;;5054126;28;20045;-62
2021/08/06 05:27:23;;;;;;;1.35;0.70;;;23.60;58.40;;;;;;5053845;28;20108;-61
2021/08/06 05:29:48;;;;;;;0.70;0.60;;;23.60;58.40;;;;;;5053795;28;20033;-61
2021/08/06 05:32:14;;;;;;;0.80;0.60;;;23.60;58.50;;;;;;5053248;28;20074;-61
2021/08/06 05:34:40;;;;;;;0.77;0.60;;;23.70;58.50;;;;;;5053663;28;20017;-62
2021/08/06 05:37:05;;;;;;;1.13;0.90;;;23.60;58.50;;;;;;5055893;28;20024;-62
2021/08/06 05:39:31;;;;;;;1.38;0.70;;;23.60;58.60;;;;;;5053725;28;20040;-61
2021/08/06 05:41:57;;;;;;;1.05;0.70;;;23.60;58.60;;;;;;5052286;28;20223;-64
2021/08/06 05:44:22;;;;;;;0.75;0.60;;;23.70;58.70;;;;;;5053130;28;20025;-63
2021/08/06 05:46:48;;;;;;;1.80;0.85;;;23.70;58.80;;;;;;5055483;28;20489;-62
2021/08/06 05:49:14;;;;;;;6.18;1.15;;;23.70;58.90;;;;;;5052435;28;20041;-62
2021/08/06 05:51:39;;;;;;;1.40;0.80;;;23.70;59.10;;;;;;5053782;28;20091;-63
2021/08/06 05:54:05;;;;;;;0.80;0.70;;;23.70;59.20;;;;;;5053165;28;20100;-62
2021/08/06 05:56:31;;;;;;;1.05;0.77;;;23.70;59.30;;;;;;5053928;28;20056;-62
2021/08/06 05:58:57;;;;;;;1.50;0.88;;;23.70;59.20;;;;;;5050649;28;20036;-60
2021/08/06 06:01:23;;;;;;;1.13;0.68;;;23.70;59.30;;;;;;5050200;28;20029;-62
2021/08/06 06:03:49;;;;;;;2.67;0.80;;;23.70;59.50;;;;;;5051475;28;20429;-61
2021/08/06 06:06:15;;;;;;;2.40;0.80;;;23.80;60.00;;;;;;5046583;28;20029;-62
2021/08/06 06:08:40;;;;;;;2.33;0.70;;;23.80;60.00;;;;;;5052485;28;20033;-61
2021/08/06 06:11:06;;;;;;;4.47;0.90;;;23.80;60.60;;;;;;5052477;28;20021;-62
2021/08/06 06:13:31;;;;;;;5.63;1.05;;;23.80;60.40;;;;;;5052230;28;20414;-62
2021/08/06 06:15:57;;;;;;;2.25;0.90;;;23.90;60.60;;;;;;5052159;28;20036;-61
2021/08/06 06:18:23;;;;;;;5.10;0.90;;;23.80;60.70;;;;;;5049780;28;20454;-62
2021/08/06 06:20:51;;;;;;;1.73;0.70;;;23.80;60.70;;;;;;5051721;28;20025;-61
2021/08/06 06:23:17;;;;;;;1.77;0.80;;;23.80;60.30;;;;;;5051336;28;20028;-62
2021/08/06 06:25:43;;;;;;;1.77;1.17;;;23.80;60.90;;;;;;5052129;28;20021;-61
2021/08/06 06:28:09;;;;;;;2.38;1.02;;;23.80;60.90;;;;;;5050989;28;20462;-61
2021/08/06 06:30:35;;;;;;;4.28;0.95;;;23.80;61.20;;;;;;5051666;28;20033;-61
2021/08/06 06:33:03;;;;;;;4.70;0.88;;;23.70;61.40;;;;;;5051671;28;20028;-61
2021/08/06 06:35:30;;;;;;;2.65;0.75;;;23.70;61.40;;;;;;5050255;28;20029;-62
2021/08/06 06:37:56;;;;;;;1.80;0.65;;;23.70;61.30;;;;;;5051226;28;20020;-62
2021/08/06 06:40:23;;;;;;;2.15;1.00;;;23.70;61.30;;;;;;5050722;28;20446;-62
2021/08/06 06:42:49;;;;;;;0.80;0.70;;;23.70;61.30;;;;;;5051598;28;20032;-63
2021/08/06 06:45:16;;;;;;;2.22;0.90;;;23.70;61.30;;;;;;5050713;28;20382;-63
2021/08/06 06:47:45;;;;;;;1.08;0.75;;;23.70;61.30;;;;;;5051252;28;20371;-63
2021/08/06 06:50:13;;;;;;;2.20;0.90;;;23.60;61.50;;;;;;5050618;28;20107;-64
2021/08/06 06:52:40;;;;;;;1.40;0.60;;;23.70;61.40;;;;;;5048967;28;20029;-62
2021/08/06 06:55:08;;;;;;;1.15;0.65;;;23.70;61.30;;;;;;5050270;28;20021;-64
2021/08/06 06:57:50;;;;;;;1.33;0.77;;;23.70;61.50;;;;;;5051010;28;20033;-62
2021/08/06 07:00:18;;;;;;;1.55;0.80;;;23.80;61.40;;;;;;5013394;28;1086587;-62
2021/08/06 07:02:44;;;;;;;1.75;0.70;;;23.80;61.30;;;;;;5052669;28;20036;-62
2021/08/06 07:05:11;;;;;;;2.25;1.00;;;23.70;61.40;;;;;;5052121;28;20098;-62
2021/08/06 07:07:37;;;;;;;3.40;0.77;;;23.70;61.30;;;;;;5051630;28;20645;-63
2021/08/06 07:10:04;;;;;;;3.20;0.90;;;23.70;61.30;;;;;;5051828;28;20033;-63
2021/08/06 07:12:29;;;;;;;2.20;1.20;;;23.70;61.40;;;;;;5051742;28;20060;-62
2021/08/06 07:14:55;;;;;;;1.98;0.80;;;23.70;61.50;;;;;;5052091;28;20226;-62
2021/08/06 07:17:21;;;;;;;2.65;0.70;;;23.70;61.50;;;;;;5051420;28;20024;-62
2021/08/06 07:19:46;;;;;;;0.90;0.68;;;23.70;62.10;;;;;;5052799;28;20029;-63
2021/08/06 07:22:12;;;;;;;2.58;0.70;;;23.70;61.60;;;;;;5051453;28;20163;-63
2021/08/06 07:24:38;;;;;;;1.67;0.60;;;23.70;61.60;;;;;;5050352;28;20017;-63
2021/08/06 07:27:04;;;;;;;1.17;0.70;;;23.70;61.60;;;;;;5051540;28;20061;-63
2021/08/06 07:29:30;;;;;;;2.15;0.77;;;23.70;61.60;;;;;;5051945;28;20037;-62
2021/08/06 07:31:55;;;;;;;1.70;0.60;;;23.60;61.50;;;;;;5052966;28;20037;-62
2021/08/06 07:34:21;;;;;;;1.83;0.57;;;23.70;61.70;;;;;;5054510;28;20490;-60
2021/08/06 07:36:46;;;;;;;1.52;0.60;;;23.70;61.50;;;;;;5061597;28;20096;-62
2021/08/06 07:39:12;;;;;;;1.35;0.70;;;23.70;61.70;;;;;;5052002;28;20028;-62
2021/08/06 07:41:38;;;;;;;1.10;0.80;;;23.70;61.70;;;;;;5053169;28;20055;-62
2021/08/06 07:44:04;;;;;;;2.08;0.70;;;23.60;61.60;;;;;;5051314;28;20021;-62
2021/08/06 07:46:29;;;;;;;3.53;1.10;;;23.70;61.70;;;;;;5053363;28;20025;-62
2021/08/06 07:48:55;;;;;;;0.95;0.73;;;23.70;61.60;;;;;;5053071;28;20032;-61
2021/08/06 07:51:21;;;;;;;0.98;0.60;;;23.70;61.60;;;;;;5052910;28;20033;-63
2021/08/06 07:53:47;;;;;;;9.88;1.00;;;23.70;61.70;;;;;;5052326;28;20032;-63
2021/08/06 07:56:14;;;;;;;5.03;0.80;;;23.60;61.60;;;;;;5051865;28;20075;-63
2021/08/06 07:58:40;;;;;;;2.85;0.75;;;23.60;61.70;;;;;;5052104;28;20029;-64
2021/08/06 08:01:06;;;;;;;3.42;1.38;;;23.60;61.90;;;;;;5051802;28;20025;-64
2021/08/06 08:03:32;;;;;;;2.35;0.80;;;23.60;62.00;;;;;;5050523;28;20018;-64
2021/08/06 08:05:58;;;;;;;2.25;0.60;;;23.60;62.10;;;;;;5051527;28;20466;-64
2021/08/06 08:08:24;;;;;;;6.30;0.80;;;23.60;62.00;;;;;;5051480;28;20219;-64
2021/08/06 08:10:49;;;;;;;2.83;0.80;;;23.60;62.20;;;;;;5052780;28;20025;-64
2021/08/06 08:13:16;;;;;;;2.45;0.60;;;23.60;62.10;;;;;;5051899;28;20112;-64
2021/08/06 08:15:42;;;;;;;4.53;0.90;;;23.60;62.20;;;;;;5052787;28;20021;-64
2021/08/06 08:18:07;;;;;;;1.85;0.82;;;23.60;62.10;;;;;;5052047;28;20402;-64
2021/08/06 08:20:33;;;;;;;1.13;0.77;;;23.60;62.00;;;;;;5052521;28;20025;-64
2021/08/06 08:22:58;;;;;;;2.75;0.88;;;23.70;62.00;;;;;;5052334;28;20037;-64
2021/08/06 08:25:24;;;;;;;2.92;1.60;;;23.70;61.90;;;;;;5051796;28;20180;-64
2021/08/06 08:27:50;;;;;;;3.97;0.88;;;23.70;61.80;;;;;;5052229;28;20079;-64
2021/08/06 08:30:17;;;;;;;1.08;0.63;;;23.70;61.90;;;;;;5051970;28;20044;-64
2021/08/06 08:32:43;;;;;;;2.58;0.75;;;23.70;61.80;;;;;;5051180;28;20040;-64
2021/08/06 08:35:09;;;;;;;1.92;0.50;;;23.70;61.70;;;;;;5051820;28;20029;-64
2021/08/06 08:37:35;;;;;;;2.50;0.60;;;23.70;61.70;;;;;;5052147;28;20025;-64
2021/08/06 08:40:01;;;;;;;3.22;0.90;;;23.70;61.80;;;;;;5052355;28;20033;-64
2021/08/06 08:42:29;;;;;;;4.25;1.30;;;23.70;61.70;;;;;;5051440;28;20500;-64
2021/08/06 08:44:57;;;;;;;2.03;0.70;;;23.70;61.60;;;;;;5052349;28;20029;-64
2021/08/06 08:47:24;;;;;;;2.38;0.60;;;23.70;61.80;;;;;;5051743;28;20112;-64
2021/08/06 08:49:52;;;;;;;2.15;0.60;;;23.70;61.70;;;;;;5052076;28;20096;-64
2021/08/06 08:52:19;;;;;;;2.47;0.65;;;23.70;61.80;;;;;;5051559;28;20139;-64
2021/08/06 08:54:44;;;;;;;1.17;0.70;;;23.80;61.80;;;;;;5052196;28;20029;-64
2021/08/06 08:57:10;;;;;;;4.13;1.13;;;23.80;61.70;;;;;;5051398;28;20032;-64
2021/08/06 08:59:36;;;;;;;1.25;0.60;;;23.80;61.70;;;;;;5051666;28;20049;-64
2021/08/06 09:02:02;;;;;;;1.42;0.70;;;23.80;61.70;;;;;;5052232;28;20115;-64
2021/08/06 09:04:29;;;;;;;0.82;0.55;;;23.80;61.70;;;;;;5051521;28;20074;-64
2021/08/06 09:06:56;;;;;;;2.13;0.73;;;23.80;61.70;;;;;;5052257;28;20108;-64
2021/08/06 09:09:24;;;;;;;2.72;0.70;;;23.80;61.90;;;;;;5050908;28;20028;-64
2021/08/06 09:12:14;;;;;;;1.67;0.80;;;23.80;61.90;;;;;;5051797;28;20064;-63
2021/08/06 09:14:40;;;;;;;2.78;0.70;;;23.80;61.90;;;;;;5052016;28;20025;-64
2021/08/06 09:17:10;;;;;;;0.80;0.60;;;23.80;61.80;;;;;;5051851;28;20104;-64
2021/08/06 09:19:39;;;;;;;1.42;0.70;;;23.80;61.80;;;;;;5052104;28;20078;-64
2021/08/06 09:22:22;;;;;;;0.90;0.50;;;23.80;61.80;;;;;;5052081;28;20025;-64
2021/08/06 09:25:09;;;;;;;1.08;0.70;;;23.80;61.80;;;;;;5052081;28;20056;-64
2021/08/06 09:27:40;;;;;;;0.40;0.40;;;23.80;61.80;;;;;;5051972;28;20106;-64
2021/08/06 09:30:10;;;;;;;1.90;0.70;;;23.80;61.80;;;;;;5051534;28;20367;-64
2021/08/06 09:32:53;;;;;;;0.80;0.52;;;23.80;61.80;;;;;;5052273;28;20056;-64
2021/08/06 09:35:23;;;;;;;1.27;0.50;;;23.80;61.60;;;;;;5049715;28;20545;-64
2021/08/06 09:37:49;;;;;;;1.27;0.55;;;23.80;61.60;;;;;;5051785;28;20037;-64
2021/08/06 09:40:27;;;;;;;2.25;0.70;;;23.80;61.60;;;;;;5051190;28;20401;-64
2021/08/06 09:42:58;;;;;;;1.27;0.32;;;23.80;61.50;;;;;;5051865;28;20029;-64
2021/08/06 09:45:27;;;;;;;1.02;0.52;;;23.80;61.40;;;;;;5051175;28;20124;-64
2021/08/06 09:47:57;;;;;;;1.05;0.50;;;23.80;61.40;;;;;;5051754;28;20029;-64
2021/08/06 09:50:36;;;;;;;1.27;0.85;;;23.80;61.50;;;;;;5051009;28;20471;-64
2021/08/06 09:53:03;;;;;;;0.98;0.60;;;23.80;61.40;;;;;;5053148;28;20383;-64
2021/08/06 09:55:32;;;;;;;0.60;0.40;;;23.80;61.30;;;;;;5054784;28;20052;-64
2021/08/06 09:58:00;;;;;;;1.50;0.70;;;23.80;61.30;;;;;;5055486;28;20025;-64
2021/08/06 10:00:27;;;;;;;0.95;0.50;;;23.80;61.20;;;;;;5054596;28;20056;-64
2021/08/06 10:02:54;;;;;;;1.15;0.60;;;23.80;61.00;;;;;;5054937;28;20474;-64
2021/08/06 10:05:22;;;;;;;1.50;0.45;;;23.80;61.10;;;;;;5054558;28;20037;-64
2021/08/06 10:07:50;;;;;;;0.88;0.50;;;23.80;61.00;;;;;;5055112;28;20029;-64
2021/08/06 10:10:26;;;;;;;0.60;0.50;;;23.80;61.00;;;;;;5054371;28;20061;-64
2021/08/06 10:12:53;;;;;;;0.90;0.50;;;23.80;60.90;;;;;;5055202;28;20025;-64
2021/08/06 10:15:20;;;;;;;1.63;0.40;;;23.80;60.90;;;;;;5053154;28;20382;-64
2021/08/06 10:17:46;;;;;;;0.70;0.60;;;23.80;60.80;;;;;;5054787;28;20474;-64
2021/08/06 10:20:15;;;;;;;1.75;0.52;;;23.80;60.70;;;;;;5054369;28;20024;-64
2021/08/06 10:22:41;;;;;;;1.70;0.43;;;23.80;60.60;;;;;;5054681;28;20028;-64
2021/08/06 10:25:15;;;;;;;0.77;0.47;;;23.80;60.50;;;;;;5054599;28;20520;-64
2021/08/06 10:27:46;;;;;;;2.55;0.60;;;23.80;60.50;;;;;;5054867;28;20411;-64
2021/08/06 10:30:30;;;;;;;1.27;0.45;;;23.80;60.20;;;;;;5053724;28;20033;-64
2021/08/06 10:33:13;;;;;;;1.77;0.60;;;23.80;60.30;;;;;;5054602;28;20465;-64
2021/08/06 10:35:54;;;;;;;3.25;0.70;;;23.80;60.20;;;;;;5054582;28;20059;-64
2021/08/06 10:38:38;;;;;;;1.70;0.60;;;23.80;60.00;;;;;;5054038;28;20029;-64
2021/08/06 10:41:11;;;;;;;0.60;0.50;;;23.80;60.00;;;;;;5054473;28;20259;-64
2021/08/06 10:43:37;;;;;;;0.60;0.40;;;23.80;60.00;;;;;;5054499;28;20025;-64
2021/08/06 10:46:03;;;;;;;1.75;0.68;;;23.80;60.00;;;;;;5054499;28;20036;-64
2021/08/06 10:48:42;;;;;;;1.10;0.50;;;23.80;60.00;;;;;;5053715;28;20299;-64
2021/08/06 10:51:19;;;;;;;1.33;0.60;;;23.80;59.90;;;;;;5054433;28;20044;-64
2021/08/06 10:53:46;;;;;;;0.85;0.40;;;23.80;59.90;;;;;;5054248;28;20028;-64
2021/08/06 10:56:18;;;;;;;1.15;0.50;;;23.80;60.00;;;;;;5053356;28;20021;-64
2021/08/06 10:58:49;;;;;;;1.58;0.60;;;23.80;59.90;;;;;;5054053;28;20021;-63
2021/08/06 11:01:24;;;;;;;;;;;23.80;59.90;;;;;;5053575;28;20486;-64
2021/08/06 11:03:53;;;;;;;1.77;0.60;;;23.80;59.80;;;;;;5053285;28;19904;-64
2021/08/06 11:06:37;;;;;;;1.00;0.60;;;23.80;59.80;;;;;;5053315;28;20067;-64
2021/08/06 11:09:10;;;;;;;1.13;0.60;;;23.80;59.70;;;;;;5053526;28;20549;-64
2021/08/06 11:11:56;;;;;;;1.30;0.52;;;23.80;59.80;;;;;;5053976;28;20067;-64
2021/08/06 11:14:28;;;;;;;1.15;0.60;;;23.80;59.70;;;;;;5053331;28;20035;-64
2021/08/06 11:17:12;;;;;;;0.93;0.50;;;23.80;59.80;;;;;;5053840;28;20108;-64
2021/08/06 11:19:54;;;;;;;1.10;0.85;;;23.80;59.70;;;;;;5053952;28;20041;-64
2021/08/06 11:22:29;;;;;;;1.27;0.57;;;23.80;59.70;;;;;;5053357;28;20021;-64
2021/08/06 11:25:01;;;;;;;0.93;0.50;;;23.80;60.20;;;;;;5053629;28;20470;-64
2021/08/06 11:27:32;;;;;;;;;;;23.80;59.50;;;;;;5053619;28;20028;-64
2021/08/06 11:30:10;;;;;;;1.17;0.57;;;23.80;59.50;;;;;;5053623;28;19920;-64
2021/08/06 11:33:03;;;;;;;0.65;0.40;;;23.80;59.50;;;;;;5053450;28;20029;-64
2021/08/06 11:35:36;;;;;;;2.22;0.52;;;23.80;59.50;;;;;;5053236;28;20128;-64
2021/08/06 11:38:22;;;;;;;0.88;0.52;;;23.80;59.40;;;;;;5053664;28;20025;-64
2021/08/06 11:40:50;;;;;;;1.75;0.77;;;23.80;59.40;;;;;;5053329;28;20028;-64
2021/08/06 11:43:21;;;;;;;1.63;0.60;;;23.80;59.40;;;;;;5052925;28;20044;-64
2021/08/06 11:45:51;;;;;;;0.70;0.50;;;23.80;59.40;;;;;;5053443;28;20036;-64
2021/08/06 11:48:17;;;;;;;3.45;0.70;;;23.80;59.40;;;;;;5052619;28;20029;-64
2021/08/06 11:50:54;;;;;;;0.43;0.40;;;23.80;59.40;;;;;;5052784;28;20041;-64
2021/08/06 11:53:25;;;;;;;0.82;0.50;;;23.80;59.30;;;;;;5052576;28;20147;-64
2021/08/06 11:55:52;;;;;;;1.33;1.03;;;23.80;59.20;;;;;;5053259;28;20040;-64
2021/08/06 11:58:37;;;;;;;0.80;0.50;;;23.80;59.10;;;;;;5052782;28;20477;-64
2021/08/06 12:01:05;;;;;;;1.05;0.63;;;23.80;59.10;;;;;;5053150;28;20045;-63
2021/08/06 12:03:42;;;;;;;1.17;0.80;;;23.80;59.10;;;;;;5052505;28;20025;-64
2021/08/06 12:06:07;;;;;;;0.95;0.50;;;23.80;59.10;;;;;;5052833;28;20029;-64
2021/08/06 12:08:34;;;;;;;0.75;0.60;;;23.80;59.00;;;;;;5051982;28;20040;-64
2021/08/06 12:11:05;;;;;;;1.63;0.60;;;23.80;58.80;;;;;;5052736;28;20025;-64
2021/08/06 12:13:35;;;;;;;1.27;0.50;;;23.80;58.80;;;;;;5051953;28;20036;-64
2021/08/06 12:16:04;;;;;;;0.88;0.60;;;23.80;58.90;;;;;;5052272;28;20075;-64
2021/08/06 12:18:31;;;;;;;2.03;0.70;;;23.80;58.70;;;;;;5052396;28;20040;-64
2021/08/06 12:21:03;;;;;;;0.65;0.52;;;23.80;58.70;;;;;;5052992;28;20110;-64
2021/08/06 12:23:29;;;;;;;0.52;0.40;;;23.80;58.70;;;;;;5052160;28;20025;-64
2021/08/06 12:26:02;;;;;;;0.65;0.50;;;23.80;58.80;;;;;;5052414;28;20366;-64
2021/08/06 12:28:28;;;;;;;0.90;0.40;;;23.80;58.70;;;;;;5051870;28;20032;-64
2021/08/06 12:31:26;;;;;;;0.70;0.50;;;23.90;58.60;;;;;;5052379;28;20366;-64
2021/08/06 12:34:25;;;;;;;2.88;0.60;;;23.90;58.60;;;;;;5052532;28;20032;-64
2021/08/06 12:37:02;;;;;;;1.30;0.50;;;23.90;58.50;;;;;;5047902;28;20041;-64
2021/08/06 12:39:32;;;;;;;0.63;0.60;;;23.90;58.50;;;;;;5051825;28;20062;-64
2021/08/06 12:42:11;;;;;;;2.83;0.65;;;23.90;58.40;;;;;;5052407;28;20032;-64
2021/08/06 12:44:37;;;;;;;0.60;0.55;;;23.90;58.40;;;;;;5051806;28;20093;-64
2021/08/06 12:47:08;;;;;;;0.65;0.40;;;23.90;58.40;;;;;;5052325;28;20029;-64
2021/08/06 12:50:02;;;;;;;2.05;0.60;;;23.90;58.30;;;;;;5051759;28;20033;-64
2021/08/06 12:52:36;;;;;;;0.50;0.40;;;23.90;58.20;;;;;;5051201;28;20548;-64
2021/08/06 12:55:19;;;;;;;1.08;0.60;;;23.90;58.10;;;;;;5052397;28;20032;-64